KAPF/APF METAR and TAF weather

Enter ICAO airport designator
Station Type Date Time Source
KAPF METAR 2019/12/07 09:53 UTC NOAA

KAPF 070953Z AUTO 00000KT 10SM CLR 14/11 A3011 RMK AO2 SLP195 T01440111


Station Type Date Time Source
KAPF Decoded METAR 2019/12/07 09:53 UTC NOAA

NAPLES MUNICIPAL AIRPORT, FL, United States (KAPF) 26-09N 081-46W
Dec 07, 2019 - 04:53 AM EST / 2019.12.07 0953 UTC
Wind: Calm:0
Visibility: 10 mile(s):0
Sky conditions: clear
Temperature: 57.9 F (14.4 C)
Dew Point: 52.0 F (11.1 C)
Relative Humidity: 80%
Pressure (altimeter): 30.11 in. Hg (1019 hPa)
ob: KAPF 070953Z AUTO 00000KT 10SM CLR 14/11 A3011 RMK AO2 SLP195 T01440111
cycle: 10

Station Type Date Time Source
KAPF TAF 2019/12/07 08:30 UTC NOAA

TAF
AMD KAPF 070828Z 0708/0806 VRB03KT P6SM SKC
FM071600 27006KT P6SM SKC
FM080000 VRB03KT P6SM SKC

Example: see airport list